Time;durP1;ratioP1;P1;durP2;ratioP2;P2;SDS_P1;SDS_P2;PMS_P1;PMS_P2;Temp;Humidity;BMP_temperature;BMP_pressure;BME280_temperature;BME280_humidity;BME280_pressure;Samples;Min_cycle;Max_cycle;Signal;HPM_P1;HPM_P2
2022/10/18 00:02:03;;;;;;;159.70;36.72;;;13.20;99.90;;;;;;5046341;28;20045;-44
2022/10/18 00:04:29;;;;;;;161.13;37.58;;;13.30;99.90;;;;;;5047381;28;20033;-45
2022/10/18 00:06:54;;;;;;;157.80;39.92;;;13.20;99.90;;;;;;5041489;28;20124;-46
2022/10/18 00:09:20;;;;;;;129.82;27.58;;;13.40;99.90;;;;;;5041869;28;20091;-46
2022/10/18 00:11:51;;;;;;;208.57;42.35;;;12.80;99.90;;;;;;5044138;28;20029;-45
2022/10/18 00:14:17;;;;;;;133.60;36.08;;;13.30;99.90;;;;;;5047004;28;20451;-44
2022/10/18 00:16:45;;;;;;;66.80;30.08;;;13.20;99.90;;;;;;5048106;28;20055;-48
2022/10/18 00:19:11;;;;;;;103.30;36.67;;;13.30;99.90;;;;;;5040465;28;20030;-43
2022/10/18 00:21:36;;;;;;;104.43;36.22;;;13.40;99.90;;;;;;5042708;28;20481;-45
2022/10/18 00:24:05;;;;;;;103.07;37.40;;;13.00;99.90;;;;;;5044255;28;20041;-44
2022/10/18 00:26:34;;;;;;;100.97;38.55;;;13.20;99.90;;;;;;5045239;28;20074;-44
2022/10/18 00:29:05;;;;;;;94.35;37.78;;;12.80;99.90;;;;;;5045249;28;20029;-46
2022/10/18 00:31:36;;;;;;;119.53;41.58;;;13.50;99.90;;;;;;5041080;28;20036;-47
2022/10/18 00:34:07;;;;;;;67.85;34.00;;;13.40;99.90;;;;;;5042208;28;20127;-44
2022/10/18 00:36:36;;;;;;;76.20;33.28;;;13.30;99.90;;;;;;5044749;28;20425;-46
2022/10/18 00:39:07;;;;;;;106.50;38.75;;;13.30;99.90;;;;;;5045519;28;20405;-44
2022/10/18 00:41:37;;;;;;;129.40;36.03;;;12.80;99.90;;;;;;5046697;28;20040;-45
2022/10/18 00:44:25;;;;;;;101.55;37.83;;;12.80;99.90;;;;;;5044931;28;20052;-47
2022/10/18 00:46:53;;;;;;;169.65;43.35;;;13.40;99.90;;;;;;5039075;28;20037;-48
2022/10/18 00:49:56;;;;;;;290.75;50.08;;;12.80;99.90;;;;;;5042872;28;20116;-45
2022/10/18 00:52:39;;;;;;;121.13;35.60;;;13.40;99.90;;;;;;5044312;28;20057;-43
2022/10/18 00:55:06;;;;;;;251.73;49.25;;;13.30;99.90;;;;;;5042935;28;21559;-43
2022/10/18 00:57:32;;;;;;;278.75;50.58;;;12.90;99.90;;;;;;5039153;28;20047;-46
2022/10/18 00:59:57;;;;;;;263.33;49.42;;;13.20;99.90;;;;;;5043063;28;20384;-46
2022/10/18 01:02:24;;;;;;;74.80;32.95;;;13.00;99.90;;;;;;5044900;28;20241;-46
2022/10/18 01:04:50;;;;;;;112.50;38.45;;;12.90;99.90;;;;;;5046812;28;20381;-44
2022/10/18 01:07:27;;;;;;;174.75;35.83;;;13.00;99.90;;;;;;5041347;28;20071;-46
2022/10/18 01:10:14;;;;;;;153.10;42.25;;;13.20;99.90;;;;;;5040417;28;20085;-45
2022/10/18 01:12:58;;;;;;;235.95;47.30;;;13.30;99.90;;;;;;5044953;28;20060;-43
2022/10/18 01:15:32;;;;;;;150.05;38.97;;;12.70;99.90;;;;;;5046142;28;20039;-45
2022/10/18 01:18:14;;;;;;;149.98;42.20;;;13.20;99.90;;;;;;5042449;28;20048;-46
2022/10/18 01:21:04;;;;;;;268.67;37.13;;;13.00;99.90;;;;;;5043106;28;20045;-44
2022/10/18 01:23:37;;;;;;;201.30;41.80;;;13.00;99.90;;;;;;5045015;28;20040;-46
2022/10/18 01:26:28;;;;;;;190.85;43.33;;;12.70;99.90;;;;;;5046088;28;20047;-44
2022/10/18 01:29:19;;;;;;;191.43;42.47;;;13.00;99.90;;;;;;5040640;28;20068;-49
2022/10/18 01:32:25;;;;;;;203.35;45.00;;;12.50;99.90;;;;;;5041366;28;20098;-47
2022/10/18 01:34:58;;;;;;;184.43;41.53;;;12.60;99.90;;;;;;5043254;28;20526;-47
2022/10/18 01:37:25;;;;;;;169.50;41.35;;;12.40;99.90;;;;;;5045859;28;20087;-47
2022/10/18 01:39:54;;;;;;;181.80;42.25;;;12.80;99.90;;;;;;5041421;28;20045;-48
2022/10/18 01:42:20;;;;;;;214.50;34.47;;;12.40;99.90;;;;;;5041587;28;20036;-44
2022/10/18 01:44:49;;;;;;;151.77;39.83;;;12.70;99.90;;;;;;5043480;28;20037;-46
2022/10/18 01:47:15;;;;;;;145.50;36.17;;;12.60;99.90;;;;;;5045318;28;20068;-45
2022/10/18 01:49:41;;;;;;;221.50;33.60;;;12.80;99.90;;;;;;5043614;28;20037;-45
2022/10/18 01:52:12;;;;;;;147.88;38.63;;;12.80;99.90;;;;;;5039894;28;20082;-45
2022/10/18 01:54:41;;;;;;;160.13;40.00;;;12.70;99.90;;;;;;5039998;28;20029;-46
2022/10/18 01:57:31;;;;;;;115.00;36.00;;;12.80;99.90;;;;;;5043621;28;20045;-45
2022/10/18 02:00:06;;;;;;;68.05;32.67;;;12.20;99.90;;;;;;5044646;28;20063;-46
2022/10/18 02:02:48;;;;;;;119.07;36.30;;;12.50;99.90;;;;;;5041717;28;20091;-45
2022/10/18 02:05:33;;;;;;;173.82;31.50;;;12.70;99.90;;;;;;5042133;28;20064;-44
2022/10/18 02:08:24;;;;;;;163.10;38.53;;;12.70;99.90;;;;;;5043333;28;20112;-44
2022/10/18 02:10:59;;;;;;;166.07;41.45;;;12.50;99.90;;;;;;5044928;28;20540;-44
2022/10/18 02:13:32;;;;;;;121.13;28.40;;;12.20;99.90;;;;;;5045469;28;20383;-44
2022/10/18 02:16:05;;;;;;;104.65;36.42;;;12.00;99.90;;;;;;5041639;28;20041;-46
2022/10/18 02:18:38;;;;;;;130.68;29.10;;;12.00;99.90;;;;;;5045638;28;20395;-44
2022/10/18 02:21:09;;;;;;;107.72;37.15;;;12.20;99.90;;;;;;5048472;28;20049;-45
2022/10/18 02:23:36;;;;;;;140.10;28.67;;;12.00;99.90;;;;;;5047722;28;20389;-44
2022/10/18 02:26:03;;;;;;;120.30;37.47;;;11.90;99.90;;;;;;5042648;28;20536;-45
2022/10/18 02:28:29;;;;;;;77.53;27.23;;;11.90;99.90;;;;;;5031913;28;20593;-45
2022/10/18 02:31:03;;;;;;;133.07;30.73;;;11.80;99.90;;;;;;5048432;28;20044;-44
2022/10/18 02:33:41;;;;;;;120.78;36.67;;;11.90;99.90;;;;;;5048772;28;20040;-45
2022/10/18 02:36:18;;;;;;;126.55;37.15;;;12.20;99.90;;;;;;5045135;28;20052;-44
2022/10/18 02:38:45;;;;;;;84.90;27.33;;;12.30;99.90;;;;;;5042905;28;20049;-46
2022/10/18 02:41:11;;;;;;;92.10;28.88;;;11.90;99.90;;;;;;5044601;28;20543;-44
2022/10/18 02:43:36;;;;;;;94.43;35.33;;;12.40;99.90;;;;;;5048324;28;20132;-43
2022/10/18 02:46:02;;;;;;;119.78;39.25;;;12.30;99.90;;;;;;5050150;28;20068;-44
2022/10/18 02:48:28;;;;;;;122.63;41.35;;;11.80;99.90;;;;;;5043335;28;20387;-44
2022/10/18 02:50:54;;;;;;;112.32;31.08;;;12.10;99.90;;;;;;5044490;28;20392;-46
2022/10/18 02:53:20;;;;;;;138.48;41.17;;;12.30;99.90;;;;;;5046492;28;20048;-45
2022/10/18 02:55:45;;;;;;;151.80;41.10;;;11.90;99.90;;;;;;5048894;28;20072;-45
2022/10/18 02:58:11;;;;;;;94.90;28.33;;;12.30;99.90;;;;;;5045670;28;20048;-45
2022/10/18 03:00:37;;;;;;;139.02;35.22;;;12.20;99.90;;;;;;5043954;28;20037;-43
2022/10/18 03:03:02;;;;;;;69.80;33.85;;;12.10;99.90;;;;;;5047788;28;20068;-45
2022/10/18 03:05:28;;;;;;;75.65;36.20;;;12.30;99.90;;;;;;5046869;28;20397;-47
2022/10/18 03:07:56;;;;;;;80.60;28.10;;;12.00;99.90;;;;;;5049241;28;20044;-44
2022/10/18 03:10:22;;;;;;;117.72;40.67;;;11.90;99.90;;;;;;5049723;28;20056;-45
2022/10/18 03:12:47;;;;;;;91.72;31.02;;;12.40;99.90;;;;;;5043262;28;20036;-44
2022/10/18 03:15:13;;;;;;;74.65;29.77;;;12.00;99.90;;;;;;5047960;28;20036;-43
2022/10/18 03:17:39;;;;;;;71.63;30.38;;;11.70;99.90;;;;;;5046419;28;20127;-45
2022/10/18 03:20:05;;;;;;;89.28;30.75;;;11.70;99.90;;;;;;5049101;28;20044;-44
2022/10/18 03:22:30;;;;;;;76.63;30.55;;;12.20;99.90;;;;;;5042310;28;20033;-45
2022/10/18 03:24:56;;;;;;;80.63;37.83;;;11.80;99.90;;;;;;5041439;28;20523;-43
2022/10/18 03:27:22;;;;;;;61.97;27.08;;;12.20;99.90;;;;;;5044557;28;20043;-43
2022/10/18 03:29:47;;;;;;;73.35;27.73;;;12.10;99.90;;;;;;5048360;28;20041;-44
2022/10/18 03:32:13;;;;;;;89.60;39.30;;;12.00;99.90;;;;;;5045912;28;20060;-46
2022/10/18 03:34:39;;;;;;;92.22;29.83;;;11.60;99.90;;;;;;5043094;28;20073;-44
2022/10/18 03:37:04;;;;;;;88.95;38.65;;;12.00;99.90;;;;;;5044413;28;20068;-44
2022/10/18 03:39:30;;;;;;;101.88;29.45;;;12.00;99.90;;;;;;5046760;28;20274;-45
2022/10/18 03:41:56;;;;;;;101.20;33.53;;;11.90;99.90;;;;;;5047826;28;20546;-44
2022/10/18 03:44:21;;;;;;;90.53;32.83;;;12.10;99.90;;;;;;5042537;28;20288;-44
2022/10/18 03:46:47;;;;;;;120.90;43.17;;;11.60;99.90;;;;;;5043854;28;20036;-44
2022/10/18 03:49:13;;;;;;;114.10;33.58;;;12.10;99.90;;;;;;5046513;28;20044;-44
2022/10/18 03:51:38;;;;;;;69.32;30.70;;;11.60;99.90;;;;;;5047595;28;20036;-43
2022/10/18 03:54:04;;;;;;;112.88;43.00;;;11.70;99.90;;;;;;5044038;28;20045;-47
2022/10/18 03:56:30;;;;;;;110.43;33.80;;;11.60;99.90;;;;;;5043332;28;20040;-46
2022/10/18 03:58:56;;;;;;;95.35;38.17;;;11.60;99.90;;;;;;5044595;28;20120;-44
2022/10/18 04:01:21;;;;;;;89.65;29.33;;;11.50;99.90;;;;;;5047623;28;20114;-43
2022/10/18 04:03:47;;;;;;;110.38;34.70;;;11.70;99.90;;;;;;5044311;28;20041;-43
2022/10/18 04:06:13;;;;;;;85.97;32.20;;;11.80;99.90;;;;;;5041560;28;20037;-45
2022/10/18 04:08:38;;;;;;;91.82;36.30;;;11.70;99.90;;;;;;5042755;28;20443;-44
2022/10/18 04:11:08;;;;;;;48.67;25.65;;;12.00;99.90;;;;;;5044993;28;20076;-44
2022/10/18 04:13:34;;;;;;;45.15;26.02;;;11.70;99.90;;;;;;5047137;28;20067;-43
2022/10/18 04:16:00;;;;;;;76.30;29.23;;;11.40;99.90;;;;;;5042598;28;20044;-45
2022/10/18 04:18:26;;;;;;;122.13;41.83;;;11.80;99.90;;;;;;5042308;28;20090;-44
2022/10/18 04:20:51;;;;;;;91.30;27.33;;;11.70;99.90;;;;;;5043357;28;20053;-46
2022/10/18 04:23:17;;;;;;;108.88;37.97;;;11.40;99.90;;;;;;5045606;28;20068;-46
2022/10/18 04:25:42;;;;;;;97.85;29.33;;;12.00;99.90;;;;;;5047865;28;20033;-44
2022/10/18 04:28:08;;;;;;;75.20;34.22;;;12.00;99.90;;;;;;5045591;28;20044;-45
2022/10/18 04:30:34;;;;;;;127.22;39.50;;;11.90;99.90;;;;;;5043576;28;20087;-43
2022/10/18 04:33:00;;;;;;;82.28;28.35;;;11.80;99.90;;;;;;5044549;28;20932;-44
2022/10/18 04:35:27;;;;;;;110.88;30.92;;;11.90;99.90;;;;;;5046263;28;20090;-44
2022/10/18 04:37:53;;;;;;;126.28;39.97;;;11.60;99.90;;;;;;5046313;28;20103;-45
2022/10/18 04:40:19;;;;;;;120.43;28.70;;;11.50;99.90;;;;;;5041634;28;20041;-45
2022/10/18 04:42:46;;;;;;;125.55;29.92;;;11.60;99.90;;;;;;5042542;28;20479;-46
2022/10/18 04:45:11;;;;;;;125.32;30.88;;;11.40;99.90;;;;;;5043169;28;20080;-45
2022/10/18 04:47:37;;;;;;;107.05;30.63;;;11.90;99.90;;;;;;5047154;28;20067;-46
2022/10/18 04:50:04;;;;;;;91.47;29.48;;;11.30;99.90;;;;;;5042938;28;20041;-44
2022/10/18 04:52:29;;;;;;;99.88;29.42;;;11.30;99.90;;;;;;5043405;28;20036;-45
2022/10/18 04:54:55;;;;;;;57.00;26.27;;;11.50;99.90;;;;;;5041734;28;20514;-46
2022/10/18 04:57:21;;;;;;;82.45;28.42;;;11.80;99.90;;;;;;5045438;28;20032;-43
2022/10/18 04:59:47;;;;;;;80.95;26.30;;;11.40;99.90;;;;;;5045196;28;20137;-46
2022/10/18 05:02:12;;;;;;;67.95;32.72;;;11.90;99.90;;;;;;5040051;28;20515;-43
2022/10/18 05:04:38;;;;;;;99.43;26.48;;;11.90;99.90;;;;;;5041993;28;20039;-45
2022/10/18 05:07:05;;;;;;;92.68;26.40;;;11.50;99.90;;;;;;5044276;28;20086;-46
2022/10/18 05:09:31;;;;;;;58.17;27.63;;;11.90;99.90;;;;;;5046841;28;20041;-43
2022/10/18 05:11:57;;;;;;;46.63;23.38;;;11.40;99.90;;;;;;5044995;28;20446;-43
2022/10/18 05:14:23;;;;;;;40.03;26.70;;;11.70;99.90;;;;;;5029813;28;20128;-43
2022/10/18 05:16:49;;;;;;;42.10;21.50;;;11.80;99.90;;;;;;5044359;28;20388;-45
2022/10/18 05:19:14;;;;;;;82.38;33.42;;;11.40;99.90;;;;;;5046769;28;20033;-43
2022/10/18 05:21:40;;;;;;;82.13;26.38;;;11.30;99.90;;;;;;5041894;28;20484;-46
2022/10/18 05:24:06;;;;;;;61.72;22.52;;;11.80;99.90;;;;;;5041765;28;20086;-45
2022/10/18 05:26:31;;;;;;;80.57;30.13;;;11.40;99.90;;;;;;5043386;28;20044;-45
2022/10/18 05:28:57;;;;;;;101.45;26.25;;;11.70;99.90;;;;;;5046601;28;20047;-44
2022/10/18 05:31:23;;;;;;;113.97;26.23;;;11.70;99.90;;;;;;5041699;28;20047;-45
2022/10/18 05:33:48;;;;;;;103.50;26.98;;;11.60;99.90;;;;;;5040321;28;20119;-43
2022/10/18 05:36:14;;;;;;;130.70;27.63;;;11.10;99.90;;;;;;5043450;28;20123;-45
2022/10/18 05:38:41;;;;;;;106.18;27.58;;;11.50;99.90;;;;;;5043429;28;20049;-44
2022/10/18 05:41:07;;;;;;;94.95;24.38;;;11.70;99.90;;;;;;5042385;28;20045;-44
2022/10/18 05:43:33;;;;;;;54.75;25.95;;;11.50;99.90;;;;;;5040842;28;20032;-46
2022/10/18 05:45:59;;;;;;;178.70;27.63;;;11.60;99.90;;;;;;5042027;28;20498;-45
2022/10/18 05:48:25;;;;;;;107.80;33.55;;;11.10;99.90;;;;;;5044218;28;20037;-48
2022/10/18 05:50:51;;;;;;;135.45;25.90;;;11.30;99.90;;;;;;5048410;28;20055;-44
2022/10/18 05:53:17;;;;;;;133.30;26.73;;;11.50;99.90;;;;;;5049666;28;20112;-45
2022/10/18 05:55:42;;;;;;;91.53;23.63;;;11.40;99.90;;;;;;5045187;28;20051;-44
2022/10/18 05:58:08;;;;;;;134.05;33.78;;;11.60;99.90;;;;;;5045908;28;20105;-43
2022/10/18 06:00:34;;;;;;;91.20;24.88;;;11.30;99.90;;;;;;5048320;28;20132;-44
2022/10/18 06:03:00;;;;;;;51.92;26.75;;;11.40;99.90;;;;;;5050304;28;20033;-46
2022/10/18 06:05:26;;;;;;;59.28;20.42;;;11.10;99.90;;;;;;5046411;28;20029;-44
2022/10/18 06:07:51;;;;;;;76.93;24.55;;;11.10;99.90;;;;;;5044665;28;20072;-46
2022/10/18 06:10:17;;;;;;;93.60;25.25;;;11.10;99.90;;;;;;5047867;28;20081;-45
2022/10/18 06:12:43;;;;;;;37.63;19.63;;;11.30;99.90;;;;;;5049145;28;20460;-43
2022/10/18 06:15:09;;;;;;;33.55;22.15;;;11.40;99.90;;;;;;5050450;28;20119;-44
2022/10/18 06:17:34;;;;;;;46.85;18.65;;;11.00;99.90;;;;;;5047207;28;20094;-45
2022/10/18 06:20:00;;;;;;;29.38;18.35;;;11.40;99.90;;;;;;5045646;28;20040;-45
2022/10/18 06:22:25;;;;;;;58.72;22.02;;;10.90;99.90;;;;;;5046162;28;20033;-45
2022/10/18 06:24:51;;;;;;;41.90;20.65;;;11.10;99.90;;;;;;5047734;28;20040;-44
2022/10/18 06:27:17;;;;;;;46.88;19.92;;;11.20;99.90;;;;;;5048013;28;20041;-49
2022/10/18 06:29:42;;;;;;;41.13;21.23;;;10.90;99.90;;;;;;5042480;28;20211;-44
2022/10/18 06:32:09;;;;;;;63.42;21.40;;;11.40;99.90;;;;;;5044716;28;20049;-44
2022/10/18 06:34:34;;;;;;;48.67;20.50;;;10.80;99.90;;;;;;5047375;28;20530;-44
2022/10/18 06:37:00;;;;;;;61.53;21.33;;;10.80;99.90;;;;;;5049019;28;20045;-43
2022/10/18 06:39:26;;;;;;;138.68;25.23;;;10.90;99.90;;;;;;5044398;28;20044;-43
2022/10/18 06:41:52;;;;;;;49.22;18.67;;;10.90;99.90;;;;;;5042925;28;20535;-44
2022/10/18 06:44:18;;;;;;;94.65;22.70;;;11.10;99.90;;;;;;5044930;28;20072;-44
2022/10/18 06:46:45;;;;;;;70.32;19.95;;;11.30;99.90;;;;;;5046840;28;20037;-43
2022/10/18 06:49:15;;;;;;;55.67;20.88;;;10.80;99.90;;;;;;5048245;28;20119;-45
2022/10/18 06:51:42;;;;;;;42.45;20.17;;;11.00;99.90;;;;;;5047450;28;20124;-45
2022/10/18 06:54:08;;;;;;;39.55;17.30;;;10.80;99.90;;;;;;5043015;28;20090;-43
2022/10/18 06:56:34;;;;;;;42.33;22.35;;;11.10;99.90;;;;;;5042066;28;20404;-44
2022/10/18 06:58:59;;;;;;;29.25;15.73;;;10.70;99.90;;;;;;5046355;28;20037;-43
2022/10/18 07:01:27;;;;;;;42.50;15.13;;;11.00;99.90;;;;;;5047200;28;20469;-42
2022/10/18 07:03:54;;;;;;;35.58;13.57;;;10.60;99.90;;;;;;5049476;28;20102;-45
2022/10/18 07:06:21;;;;;;;35.63;15.30;;;10.60;99.90;;;;;;5041630;28;20119;-44
2022/10/18 07:08:48;;;;;;;40.33;14.65;;;10.90;99.90;;;;;;5059303;28;20037;-43
2022/10/18 07:11:16;;;;;;;38.22;14.75;;;11.20;99.90;;;;;;5047443;28;20037;-44
2022/10/18 07:13:42;;;;;;;32.25;14.80;;;10.80;99.90;;;;;;5047191;28;20564;-42
2022/10/18 07:16:12;;;;;;;35.05;16.10;;;10.50;99.90;;;;;;5048367;28;20048;-45
2022/10/18 07:18:43;;;;;;;68.88;19.38;;;10.40;99.90;;;;;;5045978;28;20116;-46
2022/10/18 07:21:11;;;;;;;47.17;18.60;;;10.60;99.90;;;;;;5041297;28;20093;-44
2022/10/18 07:23:42;;;;;;;55.55;18.15;;;10.80;99.90;;;;;;5036959;28;20098;-43
2022/10/18 07:26:28;;;;;;;53.75;17.63;;;11.00;99.90;;;;;;5041216;28;20048;-43
2022/10/18 07:29:03;;;;;;;54.30;17.45;;;10.70;99.90;;;;;;5044957;28;20053;-47
2022/10/18 07:31:29;;;;;;;67.57;16.58;;;10.90;99.90;;;;;;5043706;28;20396;-45
2022/10/18 07:33:55;;;;;;;57.75;15.15;;;10.50;99.90;;;;;;5041965;28;20032;-45
2022/10/18 07:36:21;;;;;;;58.22;16.25;;;10.90;99.90;;;;;;5042568;28;20041;-43
2022/10/18 07:38:47;;;;;;;59.78;17.30;;;11.10;99.90;;;;;;5043060;28;20051;-43
2022/10/18 07:41:13;;;;;;;29.30;14.45;;;11.00;99.90;;;;;;5037822;28;20049;-43
2022/10/18 07:43:47;;;;;;;45.28;16.05;;;11.00;99.90;;;;;;5040946;28;20040;-47
2022/10/18 07:46:14;;;;;;;122.03;18.15;;;11.20;99.90;;;;;;5041496;28;20037;-44
2022/10/18 07:48:40;;;;;;;113.60;17.90;;;11.10;99.90;;;;;;5041724;28;20051;-43
2022/10/18 07:51:06;;;;;;;92.47;17.40;;;11.00;99.90;;;;;;5041256;28;20080;-43
2022/10/18 07:53:33;;;;;;;65.03;18.95;;;11.20;99.90;;;;;;5041285;28;20150;-42
2022/10/18 07:56:05;;;;;;;76.95;18.70;;;11.30;99.90;;;;;;5041011;28;20040;-44
2022/10/18 07:58:31;;;;;;;60.03;20.13;;;11.30;99.90;;;;;;5041668;28;20033;-43
2022/10/18 08:01:02;;;;;;;80.40;19.63;;;10.80;99.90;;;;;;5040502;28;20039;-44
2022/10/18 08:03:27;;;;;;;108.55;19.52;;;10.80;99.90;;;;;;5040058;28;20087;-45
2022/10/18 08:05:54;;;;;;;94.07;19.17;;;11.40;99.90;;;;;;5040345;28;20033;-44
2022/10/18 08:08:21;;;;;;;56.33;17.73;;;11.20;99.90;;;;;;5038496;28;20063;-44
2022/10/18 08:10:47;;;;;;;107.30;20.63;;;10.80;99.90;;;;;;5040222;28;20037;-46
2022/10/18 08:13:13;;;;;;;48.70;19.35;;;11.00;99.90;;;;;;5040915;28;20048;-45
2022/10/18 08:15:39;;;;;;;140.52;23.45;;;11.30;99.90;;;;;;5035142;28;20053;-45
2022/10/18 08:18:04;;;;;;;99.13;22.23;;;11.20;99.90;;;;;;5036706;28;20033;-45
2022/10/18 08:20:32;;;;;;;136.85;22.15;;;11.80;99.90;;;;;;5034178;28;20170;-46
2022/10/18 08:22:58;;;;;;;91.60;21.15;;;11.20;99.90;;;;;;5036547;28;20024;-43
2022/10/18 08:25:23;;;;;;;91.45;21.15;;;11.80;99.90;;;;;;5039447;28;20102;-44
2022/10/18 08:27:49;;;;;;;58.78;20.85;;;11.30;99.90;;;;;;5039339;28;20041;-45
2022/10/18 08:30:15;;;;;;;89.20;23.80;;;11.50;99.90;;;;;;5039417;28;20123;-44
2022/10/18 08:32:40;;;;;;;59.88;24.27;;;12.00;99.90;;;;;;5038222;28;20063;-47
2022/10/18 08:35:07;;;;;;;47.00;22.52;;;12.20;99.90;;;;;;5040222;28;20056;-45
2022/10/18 08:37:33;;;;;;;71.43;23.92;;;12.40;99.90;;;;;;5038269;28;20063;-43
2022/10/18 08:39:58;;;;;;;44.50;25.92;;;12.10;99.90;;;;;;5037289;28;20451;-43
2022/10/18 08:42:39;;;;;;;34.33;22.35;;;12.00;99.90;;;;;;5039843;28;20040;-43
2022/10/18 08:45:06;;;;;;;40.95;21.45;;;12.40;99.90;;;;;;5037695;28;20506;-44
2022/10/18 08:47:37;;;;;;;33.63;20.33;;;12.00;99.90;;;;;;5035692;28;20029;-44
2022/10/18 08:50:30;;;;;;;34.03;22.77;;;12.30;99.90;;;;;;5052999;28;20052;-43
2022/10/18 08:53:17;;;;;;;41.40;21.88;;;12.60;99.90;;;;;;5037051;28;20036;-45
2022/10/18 08:55:53;;;;;;;46.53;23.13;;;12.80;99.90;;;;;;5038461;28;20090;-44
2022/10/18 08:58:25;;;;;;;33.53;20.77;;;12.90;99.90;;;;;;5037641;28;20230;-43
2022/10/18 09:01:10;;;;;;;32.00;22.17;;;12.40;99.90;;;;;;5039162;28;20044;-44
2022/10/18 09:04:05;;;;;;;28.90;23.00;;;12.90;99.90;;;;;;5038947;28;20463;-43
2022/10/18 09:07:01;;;;;;;25.80;18.13;;;13.20;99.90;;;;;;5035412;28;20210;-42
2022/10/18 09:09:45;;;;;;;23.73;20.02;;;12.80;99.90;;;;;;5039578;28;20475;-46
2022/10/18 09:12:42;;;;;;;26.27;19.70;;;13.00;99.90;;;;;;5037802;28;20075;-45
2022/10/18 09:15:34;;;;;;;23.73;15.45;;;13.10;99.90;;;;;;5037252;28;20049;-46
2022/10/18 09:18:14;;;;;;;21.58;14.48;;;13.10;99.90;;;;;;5035501;28;20059;-43
2022/10/18 09:20:54;;;;;;;26.08;12.43;;;13.30;99.90;;;;;;5037873;28;20037;-45
2022/10/18 09:23:43;;;;;;;20.90;12.05;;;13.40;99.90;;;;;;5035867;28;20036;-45
2022/10/18 09:26:21;;;;;;;15.23;10.50;;;14.20;99.90;;;;;;5034988;28;20033;-43
2022/10/18 09:29:08;;;;;;;16.75;8.68;;;14.00;99.90;;;;;;5035599;28;20604;-43
2022/10/18 09:31:53;;;;;;;17.75;9.48;;;14.30;99.90;;;;;;5036207;28;20554;-47
2022/10/18 09:34:25;;;;;;;14.77;6.65;;;14.00;99.90;;;;;;5036854;28;20040;-43
2022/10/18 09:36:52;;;;;;;15.48;6.47;;;14.10;99.90;;;;;;5035686;28;20571;-44
2022/10/18 09:39:22;;;;;;;16.23;7.40;;;14.50;99.90;;;;;;5035208;28;20061;-44
2022/10/18 09:42:25;;;;;;;19.85;7.25;;;14.90;99.90;;;;;;5038480;28;20067;-47
2022/10/18 09:45:07;;;;;;;13.02;8.30;;;14.70;99.90;;;;;;5036726;28;20033;-43
2022/10/18 09:47:44;;;;;;;13.38;5.72;;;14.80;99.90;;;;;;5035191;28;20029;-46
2022/10/18 09:50:51;;;;;;;12.52;4.38;;;14.10;99.90;;;;;;5035620;28;20370;-47
2022/10/18 09:53:20;;;;;;;15.38;3.85;;;14.60;99.90;;;;;;5038419;28;20044;-43
2022/10/18 09:55:53;;;;;;;12.32;3.80;;;14.30;99.90;;;;;;5038293;28;20033;-45
2022/10/18 09:58:21;;;;;;;14.02;3.83;;;14.80;99.90;;;;;;5036636;28;20378;-43
2022/10/18 10:00:49;;;;;;;15.05;4.00;;;14.40;99.90;;;;;;5036801;28;20041;-46
2022/10/18 10:03:15;;;;;;;12.57;3.13;;;14.90;99.90;;;;;;5037938;28;20414;-47
2022/10/18 10:05:42;;;;;;;12.27;2.85;;;14.70;99.90;;;;;;5035117;28;20049;-46
2022/10/18 10:08:08;;;;;;;11.57;2.83;;;15.10;99.90;;;;;;5035989;28;20068;-45
2022/10/18 10:10:37;;;;;;;16.60;3.20;;;14.80;99.90;;;;;;5034768;28;20140;-46
2022/10/18 10:13:24;;;;;;;10.50;2.30;;;15.40;99.90;;;;;;5036563;28;20132;-45
2022/10/18 10:16:01;;;;;;;10.88;2.13;;;15.40;99.90;;;;;;5037067;28;20123;-48
2022/10/18 10:18:31;;;;;;;12.82;2.33;;;15.50;99.90;;;;;;5049999;28;20133;-45
2022/10/18 10:21:00;;;;;;;13.75;2.83;;;15.80;99.90;;;;;;5036668;28;20037;-43
2022/10/18 10:23:30;;;;;;;11.70;2.22;;;16.10;99.90;;;;;;5035556;28;20072;-45
2022/10/18 10:26:00;;;;;;;10.27;1.90;;;16.20;99.90;;;;;;5035887;28;20440;-44
2022/10/18 10:28:29;;;;;;;11.15;1.90;;;16.20;99.90;;;;;;5034577;28;20215;-46
2022/10/18 10:31:28;;;;;;;9.98;2.25;;;16.00;99.90;;;;;;5035767;28;20037;-45
2022/10/18 10:33:59;;;;;;;11.00;2.40;;;16.00;99.90;;;;;;5032629;28;20483;-45
2022/10/18 10:36:24;;;;;;;10.65;2.35;;;16.30;99.90;;;;;;5028628;28;20089;-44
2022/10/18 10:39:11;;;;;;;14.85;2.55;;;16.30;99.90;;;;;;5036138;28;20479;-45
2022/10/18 10:41:39;;;;;;;15.27;2.38;;;16.40;99.90;;;;;;5036322;28;20041;-44
2022/10/18 10:44:15;;;;;;;9.13;2.15;;;16.40;99.90;;;;;;5035564;28;20041;-46
2022/10/18 10:46:40;;;;;;;12.68;2.42;;;16.50;99.90;;;;;;5034959;28;20432;-46
2022/10/18 10:49:18;;;;;;;11.90;2.30;;;16.50;99.90;;;;;;5034931;28;20028;-44
2022/10/18 10:51:45;;;;;;;11.15;1.75;;;16.40;99.90;;;;;;5035205;28;20049;-46
2022/10/18 10:54:17;;;;;;;9.32;1.75;;;16.40;99.90;;;;;;5034429;28;20112;-45
2022/10/18 10:57:02;;;;;;;12.93;2.40;;;16.60;99.90;;;;;;5035448;28;20156;-43
2022/10/18 10:59:41;;;;;;;9.50;1.60;;;16.60;99.90;;;;;;5036950;28;20045;-47
2022/10/18 11:02:22;;;;;;;10.02;1.60;;;16.70;99.90;;;;;;5035912;28;20056;-47
2022/10/18 11:04:50;;;;;;;8.35;1.60;;;16.70;99.90;;;;;;5033716;28;20041;-45
2022/10/18 11:07:40;;;;;;;11.13;2.33;;;16.80;99.90;;;;;;5035702;28;20044;-45
2022/10/18 11:10:17;;;;;;;8.23;1.42;;;16.70;99.90;;;;;;5035390;28;20029;-44
2022/10/18 11:13:03;;;;;;;10.45;1.88;;;17.00;99.90;;;;;;5034847;28;20147;-45
2022/10/18 11:15:41;;;;;;;10.65;1.45;;;17.20;99.90;;;;;;5036403;28;20669;-46
2022/10/18 11:18:13;;;;;;;9.20;1.58;;;17.20;99.90;;;;;;5033061;28;20048;-45
2022/10/18 11:21:00;;;;;;;6.05;1.55;;;17.40;99.90;;;;;;5029814;28;20120;-46
2022/10/18 11:23:35;;;;;;;12.27;1.73;;;17.40;99.90;;;;;;5027329;28;20048;-47
2022/10/18 11:26:10;;;;;;;8.68;1.50;;;17.70;99.90;;;;;;5031143;28;20037;-47
2022/10/18 11:29:10;;;;;;;10.82;1.80;;;17.80;99.90;;;;;;5034228;28;20036;-47
2022/10/18 11:31:57;;;;;;;8.32;1.48;;;17.90;99.90;;;;;;5032797;28;20121;-46
2022/10/18 11:34:31;;;;;;;10.98;1.80;;;18.00;99.90;;;;;;5023508;28;20531;-47
2022/10/18 11:37:05;;;;;;;11.02;1.67;;;18.00;99.90;;;;;;5023425;28;20033;-45
2022/10/18 11:39:33;;;;;;;9.02;1.85;;;18.00;99.90;;;;;;5034798;28;20221;-46
2022/10/18 11:42:10;;;;;;;15.68;2.13;;;18.10;99.90;;;;;;5035206;28;20052;-47
2022/10/18 11:44:39;;;;;;;9.38;1.60;;;18.10;99.90;;;;;;5035751;28;20053;-46
2022/10/18 11:47:14;;;;;;;8.80;1.60;;;18.00;99.90;;;;;;5035379;28;20102;-47
2022/10/18 11:50:04;;;;;;;9.50;1.40;;;18.10;99.90;;;;;;5030954;28;20055;-46
2022/10/18 11:52:51;;;;;;;6.35;1.20;;;18.10;99.90;;;;;;5032946;28;20041;-46
2022/10/18 11:55:44;;;;;;;8.40;1.33;;;18.20;99.90;;;;;;5034932;28;20037;-46
2022/10/18 11:58:31;;;;;;;9.52;1.60;;;18.40;99.90;;;;;;5036583;28;20051;-45
2022/10/18 12:01:23;;;;;;;10.32;1.42;;;18.50;99.90;;;;;;5031428;28;20037;-46
2022/10/18 12:04:21;;;;;;;9.55;1.58;;;18.50;99.90;;;;;;5032930;28;20051;-45
2022/10/18 12:06:50;;;;;;;12.55;1.55;;;18.40;99.90;;;;;;5033097;28;20068;-46
2022/10/18 12:09:31;;;;;;;8.30;1.40;;;18.60;99.90;;;;;;5033879;28;20540;-47
2022/10/18 12:12:13;;;;;;;8.43;1.70;;;18.70;99.90;;;;;;5036559;28;20492;-49
2022/10/18 12:14:45;;;;;;;10.32;1.70;;;18.60;99.90;;;;;;5035862;28;20056;-48
2022/10/18 12:17:27;;;;;;;7.75;1.55;;;18.70;99.90;;;;;;5034365;28;20920;-45
2022/10/18 12:19:58;;;;;;;7.43;1.42;;;18.60;99.90;;;;;;5033454;28;20041;-46
2022/10/18 12:22:46;;;;;;;7.97;1.30;;;18.60;99.90;;;;;;5035937;28;20073;-46
2022/10/18 12:25:13;;;;;;;9.20;1.27;;;18.60;99.90;;;;;;5035863;28;20477;-43
2022/10/18 12:28:13;;;;;;;7.93;1.27;;;18.80;99.90;;;;;;5034388;28;20439;-46
2022/10/18 12:30:49;;;;;;;13.38;1.40;;;18.80;99.90;;;;;;5046239;28;20041;-45
2022/10/18 12:33:22;;;;;;;10.85;1.85;;;19.10;99.90;;;;;;5047930;28;20447;-47
2022/10/18 12:35:58;;;;;;;8.18;1.38;;;19.00;99.90;;;;;;5034608;28;20049;-45
2022/10/18 12:38:39;;;;;;;6.97;1.45;;;19.00;99.90;;;;;;5041080;28;20104;-46
2022/10/18 12:41:05;;;;;;;7.65;1.55;;;19.10;99.90;;;;;;5042499;28;20045;-45
2022/10/18 12:43:36;;;;;;;9.43;1.30;;;19.20;99.90;;;;;;5043801;28;20029;-44
2022/10/18 12:46:06;;;;;;;9.27;1.65;;;19.30;99.90;;;;;;5044659;28;20045;-44
2022/10/18 12:48:41;;;;;;;11.68;2.00;;;19.60;99.90;;;;;;5044108;28;20488;-45
2022/10/18 12:51:20;;;;;;;7.60;1.35;;;19.50;99.90;;;;;;5046909;28;20045;-46